createdAt,value
2022-12-01T00:01:39.756Z,98049.81
2022-12-01T00:04:08.082Z,98044.06
2022-12-01T00:06:36.389Z,98044.16
2022-12-01T00:09:22.579Z,98047.78
2022-12-01T00:11:50.827Z,98037.91
2022-12-01T00:14:20.815Z,98033.97
2022-12-01T00:16:49.128Z,98038.69
2022-12-01T00:19:17.938Z,98033.56
2022-12-01T00:21:46.992Z,98033.88
2022-12-01T00:24:15.223Z,98038.56
2022-12-01T00:26:43.627Z,98042.81
2022-12-01T00:29:12.824Z,98042.56
2022-12-01T00:31:42.728Z,98036.88
2022-12-01T00:34:15.534Z,98041.38
2022-12-01T00:36:44.151Z,98039.25
2022-12-01T00:39:12.767Z,98044.34
2022-12-01T00:41:41.507Z,98047.78
2022-12-01T00:44:11.293Z,98054.19
2022-12-01T00:46:39.875Z,98055.34
2022-12-01T00:49:13.670Z,98051.75
2022-12-01T00:51:41.988Z,98053.94
2022-12-01T00:54:10.349Z,98043.94
2022-12-01T00:56:38.651Z,98047.00
2022-12-01T00:59:07.198Z,98056.38
2022-12-01T01:01:36.737Z,98047.84
2022-12-01T01:04:05.274Z,98053.66
2022-12-01T01:06:35.265Z,98045.22
2022-12-01T01:09:03.890Z,98050.06
2022-12-01T01:11:32.874Z,98052.28
2022-12-01T01:14:01.540Z,98047.84
2022-12-01T01:16:30.206Z,98052.38
2022-12-01T01:18:59.094Z,98048.38
2022-12-01T01:21:28.321Z,98051.53
2022-12-01T01:23:57.960Z,98044.47
2022-12-01T01:26:28.723Z,98044.47
2022-12-01T01:28:58.165Z,98040.00
2022-12-01T01:31:27.731Z,98049.25
2022-12-01T01:33:56.726Z,98047.00
2022-12-01T01:36:25.575Z,98049.00
2022-12-01T01:38:55.249Z,98053.34
2022-12-01T01:41:25.411Z,98050.13
2022-12-01T01:43:56.140Z,98057.03
2022-12-01T01:46:27.089Z,98062.34
2022-12-01T01:48:57.457Z,98058.16
2022-12-01T01:51:29.367Z,98053.72
2022-12-01T01:54:02.242Z,98056.66
2022-12-01T01:56:32.300Z,98054.31
2022-12-01T01:59:00.803Z,98058.53
2022-12-01T02:01:29.136Z,98060.16
2022-12-01T02:03:57.651Z,98054.75
2022-12-01T02:06:25.916Z,98052.38
2022-12-01T02:08:54.416Z,98054.19
2022-12-01T02:11:58.326Z,98056.84
2022-12-01T02:14:58.879Z,98054.19
2022-12-01T02:17:35.307Z,98057.63
2022-12-01T02:20:54.700Z,98059.84
2022-12-01T02:23:50.568Z,98059.94
2022-12-01T02:26:34.405Z,98054.47
2022-12-01T02:29:21.159Z,98057.03
2022-12-01T02:31:54.993Z,98057.56
2022-12-01T02:34:27.392Z,98062.28
2022-12-01T02:36:57.795Z,98057.41
2022-12-01T02:39:30.761Z,98058.34
2022-12-01T02:42:03.711Z,98053.66
2022-12-01T02:44:34.749Z,98059.38
2022-12-01T02:47:10.618Z,98061.06
2022-12-01T02:49:42.276Z,98064.31
2022-12-01T02:52:11.700Z,98048.41
2022-12-01T02:54:39.973Z,98054.84
2022-12-01T02:57:10.418Z,98054.56
2022-12-01T02:59:38.712Z,98051.41
2022-12-01T03:02:11.926Z,98049.72
2022-12-01T03:04:46.655Z,98043.00
2022-12-01T03:07:28.062Z,98047.38
2022-12-01T03:10:01.078Z,98036.38
2022-12-01T03:12:34.494Z,98037.56
2022-12-01T03:15:08.163Z,98033.75
2022-12-01T03:17:41.485Z,98039.78
2022-12-01T03:20:14.434Z,98038.97
2022-12-01T03:22:45.996Z,98043.00
2022-12-01T03:25:15.290Z,98046.13
2022-12-01T03:28:06.687Z,98035.91
2022-12-01T03:30:35.259Z,98044.78
2022-12-01T03:33:09.779Z,98032.28
2022-12-01T03:35:41.923Z,98040.88
2022-12-01T03:38:15.326Z,98035.38
2022-12-01T03:40:44.571Z,98041.97
2022-12-01T03:43:16.801Z,98039.25
2022-12-01T03:45:57.710Z,98043.00
2022-12-01T03:48:28.303Z,98036.28
2022-12-01T03:51:03.899Z,98036.16
2022-12-01T03:53:36.220Z,98031.31
2022-12-01T03:56:06.668Z,98036.97
2022-12-01T03:58:38.075Z,98034.75
2022-12-01T04:01:06.802Z,98027.16
2022-12-01T04:03:36.707Z,98033.66
2022-12-01T04:06:05.561Z,98030.16
2022-12-01T04:08:34.200Z,98034.63
2022-12-01T04:11:22.540Z,98024.97
2022-12-01T04:13:49.867Z,98030.41
2022-12-01T04:16:18.098Z,98026.88
2022-12-01T04:18:47.738Z,98028.63
2022-12-01T04:21:16.011Z,98025.44
2022-12-01T04:24:02.227Z,98020.72
2022-12-01T04:26:32.240Z,98023.00
2022-12-01T04:29:00.556Z,98011.63
2022-12-01T04:31:28.982Z,98009.13
2022-12-01T04:33:59.172Z,98006.72
2022-12-01T04:36:28.346Z,98011.84
2022-12-01T04:38:56.678Z,98010.38
2022-12-01T04:41:25.575Z,98012.97
2022-12-01T04:43:54.241Z,98008.91
2022-12-01T04:46:22.588Z,98016.25
2022-12-01T04:48:51.489Z,98006.63
2022-12-01T04:51:22.447Z,98013.03
2022-12-01T04:53:50.957Z,98016.75
2022-12-01T04:56:19.383Z,98017.66
2022-12-01T04:58:47.611Z,98012.88
2022-12-01T05:01:17.523Z,98015.59
2022-12-01T05:03:47.036Z,98024.13
2022-12-01T05:06:16.638Z,98022.03
2022-12-01T05:08:46.333Z,98019.94
2022-12-01T05:11:15.371Z,98017.81
2022-12-01T05:13:45.208Z,98024.97
2022-12-01T05:16:15.081Z,98024.78
2022-12-01T05:18:43.615Z,98027.56
2022-12-01T05:21:11.572Z,98023.50
2022-12-01T05:23:40.065Z,98019.13
2022-12-01T05:26:10.587Z,98033.47
2022-12-01T05:28:40.973Z,98031.69
2022-12-01T05:31:09.311Z,98033.94
2022-12-01T05:33:37.598Z,98027.50
2022-12-01T05:36:06.488Z,98031.47
2022-12-01T05:38:34.728Z,98030.44
2022-12-01T05:41:03.002Z,98031.84
2022-12-01T05:43:32.941Z,98029.19
2022-12-01T05:46:01.286Z,98034.31
2022-12-01T05:48:29.688Z,98028.19
2022-12-01T05:50:58.050Z,98031.06
2022-12-01T05:53:26.365Z,98028.25
2022-12-01T05:55:55.421Z,98037.94
2022-12-01T05:58:24.095Z,98031.88
2022-12-01T06:00:53.762Z,98031.06
2022-12-01T06:03:22.003Z,98041.25
2022-12-01T06:05:50.470Z,98036.13
2022-12-01T06:08:18.836Z,98038.78
2022-12-01T06:10:47.671Z,98036.34
2022-12-01T06:13:16.172Z,98040.47
2022-12-01T06:15:44.423Z,98034.47
2022-12-01T06:18:14.121Z,98038.53
2022-12-01T06:20:42.391Z,98044.03
2022-12-01T06:23:10.950Z,98051.66
2022-12-01T06:25:39.183Z,98052.44
2022-12-01T06:28:07.481Z,98062.06
2022-12-01T06:30:35.829Z,98055.66
2022-12-01T06:33:04.174Z,98051.25
2022-12-01T06:35:33.892Z,98059.34
2022-12-01T06:38:02.375Z,98056.78
2022-12-01T06:40:30.829Z,98059.41
2022-12-01T06:43:01.315Z,98071.53
2022-12-01T06:45:30.122Z,98073.44
2022-12-01T06:47:59.127Z,98072.72
2022-12-01T06:50:27.772Z,98076.19
2022-12-01T06:52:59.295Z,98082.41
2022-12-01T06:55:27.870Z,98083.03
2022-12-01T06:57:56.614Z,98087.38
2022-12-01T07:00:26.024Z,98096.22
2022-12-01T07:02:54.393Z,98084.16
2022-12-01T07:05:22.758Z,98085.06
2022-12-01T07:07:56.382Z,98094.41
2022-12-01T07:10:29.172Z,98094.38
2022-12-01T07:12:58.268Z,98093.28
2022-12-01T07:15:28.769Z,98092.22
2022-12-01T07:17:57.606Z,98098.94
2022-12-01T07:20:25.834Z,98097.69
2022-12-01T07:22:55.710Z,98098.13
2022-12-01T07:25:24.324Z,98109.34
2022-12-01T07:27:54.807Z,98105.03
2022-12-01T07:30:28.406Z,98105.97
2022-12-01T07:32:57.096Z,98114.59
2022-12-01T07:35:25.321Z,98109.44
2022-12-01T07:37:55.835Z,98112.91
2022-12-01T07:40:24.840Z,98105.31
2022-12-01T07:42:54.539Z,98111.25
2022-12-01T07:45:25.251Z,98111.19
2022-12-01T07:47:54.023Z,98112.78
2022-12-01T07:50:22.502Z,98113.50
2022-12-01T07:52:51.257Z,98110.84
2022-12-01T07:55:19.647Z,98115.34
2022-12-01T07:57:47.976Z,98118.84
2022-12-01T08:00:19.103Z,98114.63
2022-12-01T08:02:49.920Z,98105.81
2022-12-01T08:05:18.522Z,98116.59
2022-12-01T08:07:47.304Z,98110.19
2022-12-01T08:10:31.457Z,98111.88
2022-12-01T08:13:12.933Z,98112.50
2022-12-01T08:15:55.779Z,98117.75
2022-12-01T08:18:24.564Z,98125.09
2022-12-01T08:20:53.783Z,98115.66
2022-12-01T08:23:22.092Z,98119.13
2022-12-01T08:25:52.557Z,98118.38
2022-12-01T08:28:21.400Z,98123.88
2022-12-01T08:30:49.795Z,98121.38
2022-12-01T08:33:19.609Z,98118.38
2022-12-01T08:35:47.917Z,98125.44
2022-12-01T08:38:16.398Z,98129.66
2022-12-01T08:40:44.665Z,98128.06
2022-12-01T08:43:23.086Z,98123.59
2022-12-01T08:46:02.948Z,98128.34
2022-12-01T08:48:34.268Z,98135.00
2022-12-01T08:51:05.325Z,98131.34
2022-12-01T08:53:34.892Z,98135.19
2022-12-01T08:56:04.664Z,98141.34
2022-12-01T08:58:32.934Z,98142.94
2022-12-01T09:01:07.816Z,98139.59
2022-12-01T09:03:38.480Z,98140.97
2022-12-01T09:06:09.668Z,98143.91
2022-12-01T09:08:38.631Z,98142.28
2022-12-01T09:11:08.661Z,98136.41
2022-12-01T09:13:38.020Z,98142.16
2022-12-01T09:16:08.492Z,98132.53
2022-12-01T09:18:38.831Z,98127.41
2022-12-01T09:21:16.012Z,98135.06
2022-12-01T09:23:44.706Z,98136.16
2022-12-01T09:26:18.203Z,98134.25
2022-12-01T09:28:46.760Z,98138.88
2022-12-01T09:31:16.406Z,98131.59
2022-12-01T09:33:46.333Z,98139.53
2022-12-01T09:36:14.595Z,98139.47
2022-12-01T09:38:42.873Z,98139.13
2022-12-01T09:41:16.794Z,98137.09
2022-12-01T09:43:47.965Z,98132.41
2022-12-01T09:46:20.843Z,98137.97
2022-12-01T09:48:53.279Z,98129.19
2022-12-01T09:51:25.289Z,98127.19
2022-12-01T09:53:56.666Z,98133.94
2022-12-01T09:56:27.324Z,98123.69
2022-12-01T09:58:57.750Z,98119.69
2022-12-01T10:01:34.289Z,98121.47
2022-12-01T10:04:09.042Z,98122.72
2022-12-01T10:06:39.778Z,98118.78
2022-12-01T10:09:22.590Z,98114.56
2022-12-01T10:11:54.375Z,98113.47
2022-12-01T10:14:22.684Z,98112.69
2022-12-01T10:16:59.363Z,98106.16
2022-12-01T10:19:34.151Z,98102.38
2022-12-01T10:22:15.110Z,98107.69
2022-12-01T10:24:54.213Z,98100.63
2022-12-01T10:27:32.043Z,98101.78
2022-12-01T10:30:06.437Z,98102.13
2022-12-01T10:32:42.224Z,98093.53
2022-12-01T10:35:13.788Z,98090.66
2022-12-01T10:37:42.284Z,98093.97
2022-12-01T10:40:14.025Z,98091.66
2022-12-01T10:42:44.454Z,98092.16
2022-12-01T10:45:17.101Z,98089.38
2022-12-01T10:48:15.929Z,98074.81
2022-12-01T10:50:47.216Z,98076.34
2022-12-01T10:53:29.552Z,98072.47
2022-12-01T10:56:01.988Z,98075.34
2022-12-01T10:58:30.394Z,98073.91
2022-12-01T11:01:01.263Z,98079.50
2022-12-01T11:03:33.197Z,98075.13
2022-12-01T11:06:04.673Z,98073.25
2022-12-01T11:08:37.543Z,98074.91
2022-12-01T11:11:07.219Z,98071.81
2022-12-01T11:13:37.039Z,98066.72
2022-12-01T11:16:07.620Z,98065.25
2022-12-01T11:18:37.924Z,98065.97
2022-12-01T11:21:10.579Z,98059.31
2022-12-01T11:23:46.474Z,98057.78
2022-12-01T11:26:17.775Z,98060.16
2022-12-01T11:28:53.883Z,98064.59
2022-12-01T11:31:25.981Z,98061.09
2022-12-01T11:33:56.274Z,98063.69
2022-12-01T11:36:31.008Z,98061.44
2022-12-01T11:39:01.705Z,98055.31
2022-12-01T11:41:33.563Z,98067.44
2022-12-01T11:44:06.321Z,98067.44
2022-12-01T11:46:50.095Z,98065.81
2022-12-01T11:49:21.413Z,98068.53
2022-12-01T11:51:51.649Z,98063.63
2022-12-01T11:54:22.051Z,98061.25
2022-12-01T11:57:17.413Z,98068.44
2022-12-01T11:59:39.680Z,98065.28
2022-12-01T12:02:19.055Z,98062.69
2022-12-01T12:05:02.808Z,98066.22
2022-12-01T12:07:40.952Z,98059.66
2022-12-01T12:10:20.740Z,98060.63
2022-12-01T12:13:01.450Z,98062.13
2022-12-01T12:15:39.242Z,98057.25
2022-12-01T12:18:24.594Z,98054.59
2022-12-01T12:21:06.651Z,98058.97
2022-12-01T12:23:59.172Z,98045.56
2022-12-01T12:26:29.700Z,98048.41
2022-12-01T12:29:23.566Z,98047.84
2022-12-01T12:31:59.854Z,98045.19
2022-12-01T12:34:47.858Z,98044.75
2022-12-01T12:37:24.350Z,98046.31
2022-12-01T12:40:25.145Z,98042.56
2022-12-01T12:43:01.222Z,98042.81
2022-12-01T12:45:33.340Z,98043.72
2022-12-01T12:48:17.821Z,98044.72
2022-12-01T12:50:53.408Z,98037.38
2022-12-01T12:53:24.494Z,98035.63
2022-12-01T12:56:00.613Z,98036.91
2022-12-01T12:58:31.953Z,98033.66
2022-12-01T13:01:02.538Z,98035.28
2022-12-01T13:03:38.511Z,98038.72
2022-12-01T13:06:10.271Z,98039.09
2022-12-01T13:08:41.556Z,98033.59
2022-12-01T13:11:16.308Z,98038.31
2022-12-01T13:13:53.185Z,98036.06
2022-12-01T13:16:25.960Z,98034.91
2022-12-01T13:18:56.543Z,98032.97
2022-12-01T13:21:25.159Z,98043.22
2022-12-01T13:23:54.252Z,98033.31
2022-12-01T13:26:24.904Z,98031.16
2022-12-01T13:28:55.154Z,98028.50
2022-12-01T13:31:23.928Z,98030.28
2022-12-01T13:33:57.545Z,98033.50
2022-12-01T13:39:20.382Z,98038.78
2022-12-01T13:41:59.578Z,98038.19
2022-12-01T13:44:29.854Z,98033.28
2022-12-01T13:47:00.911Z,98031.56
2022-12-01T13:49:42.260Z,98032.38
2022-12-01T13:52:31.856Z,98029.97
2022-12-01T13:55:24.106Z,98030.84
2022-12-01T13:58:24.248Z,98030.94
2022-12-01T14:00:52.953Z,98036.53
2022-12-01T14:03:53.260Z,98035.84
2022-12-01T14:06:27.738Z,98023.25
2022-12-01T14:08:59.695Z,98026.19
2022-12-01T14:11:29.151Z,98023.56
2022-12-01T14:14:00.822Z,98026.19
2022-12-01T14:16:47.529Z,98023.00
2022-12-01T14:19:30.831Z,98021.38
2022-12-01T14:21:59.124Z,98017.16
2022-12-01T14:24:32.418Z,98017.78
2022-12-01T14:27:02.086Z,98017.38
2022-12-01T14:29:34.081Z,98013.50
2022-12-01T14:32:21.760Z,98014.09
2022-12-01T14:35:05.537Z,98016.94
2022-12-01T14:37:46.082Z,98014.38
2022-12-01T14:40:18.896Z,98011.56
2022-12-01T14:43:08.471Z,98006.72
2022-12-01T14:45:41.854Z,98009.19
2022-12-01T14:48:14.167Z,97999.19
2022-12-01T14:50:46.905Z,98012.28
2022-12-01T14:53:20.758Z,98008.16
2022-12-01T14:55:53.901Z,98013.00
2022-12-01T14:58:25.639Z,98005.75
2022-12-01T15:00:59.759Z,98012.69
2022-12-01T15:03:32.209Z,98013.16
2022-12-01T15:06:00.679Z,98011.00
2022-12-01T15:09:04.027Z,98021.56
2022-12-01T15:11:25.597Z,98012.59
2022-12-01T15:13:54.903Z,98015.91
2022-12-01T15:16:26.444Z,98016.72
2022-12-01T15:18:55.235Z,98025.44
2022-12-01T15:21:26.822Z,98024.44
2022-12-01T15:24:00.541Z,98028.41
2022-12-01T15:26:30.758Z,98021.38
2022-12-01T15:29:17.058Z,98018.16
2022-12-01T15:31:49.745Z,98015.69
2022-12-01T15:34:20.432Z,98020.94
2022-12-01T15:36:49.513Z,98018.25
2022-12-01T15:39:19.446Z,98011.63
2022-12-01T15:41:53.853Z,98019.97
2022-12-01T15:44:27.219Z,98014.00
2022-12-01T15:46:57.803Z,98015.41
2022-12-01T15:49:29.885Z,98013.69
2022-12-01T15:52:07.352Z,98013.81
2022-12-01T15:54:37.915Z,98013.81
2022-12-01T15:57:07.667Z,98013.91
2022-12-01T15:59:38.884Z,98012.03
2022-12-01T16:02:22.765Z,98016.13
2022-12-01T16:05:01.604Z,98010.22
2022-12-01T16:07:57.216Z,98022.16
2022-12-01T16:10:36.699Z,98022.16
2022-12-01T16:13:42.809Z,98009.44
2022-12-01T16:16:41.761Z,98017.97
2022-12-01T16:19:28.000Z,98012.59
2022-12-01T16:22:00.909Z,98020.50
2022-12-01T16:24:32.134Z,98017.13
2022-12-01T16:27:02.387Z,98021.72
2022-12-01T16:29:33.652Z,98016.19
2022-12-01T16:32:20.349Z,98013.69
2022-12-01T16:34:55.978Z,98019.00
2022-12-01T16:37:25.483Z,98020.06
2022-12-01T16:39:55.044Z,98017.38
2022-12-01T16:42:24.722Z,98015.41
2022-12-01T16:44:54.211Z,98013.59
2022-12-01T16:47:24.953Z,98011.88
2022-12-01T16:49:55.537Z,98020.72
2022-12-01T16:55:26.550Z,98017.50
2022-12-01T16:57:55.840Z,98025.16
2022-12-01T17:00:24.770Z,98026.50
2022-12-01T17:02:53.871Z,98020.69
2022-12-01T17:05:24.295Z,98022.59
2022-12-01T17:07:54.517Z,98023.44
2022-12-01T17:10:24.100Z,98025.63
2022-12-01T17:12:53.377Z,98023.63
2022-12-01T17:15:22.511Z,98028.28
2022-12-01T17:17:51.790Z,98024.13
2022-12-01T17:20:20.622Z,98025.03
2022-12-01T17:22:51.266Z,98030.19
2022-12-01T17:25:21.058Z,98031.97
2022-12-01T17:27:50.176Z,98037.09
2022-12-01T17:30:19.646Z,98035.34
2022-12-01T17:32:48.445Z,98037.09
2022-12-01T17:35:17.968Z,98029.44
2022-12-01T17:37:46.935Z,98036.38
2022-12-01T17:40:17.893Z,98042.16
2022-12-01T17:42:50.594Z,98045.69
2022-12-01T17:45:21.772Z,98042.19
2022-12-01T17:47:50.652Z,98044.72
2022-12-01T17:50:20.524Z,98046.47
2022-12-01T17:52:49.149Z,98048.06
2022-12-01T17:55:19.733Z,98042.25
2022-12-01T17:57:48.328Z,98043.91
2022-12-01T18:00:18.711Z,98048.81
2022-12-01T18:02:48.923Z,98049.84
2022-12-01T18:05:22.603Z,98044.75
2022-12-01T18:07:51.664Z,98043.88
2022-12-01T18:10:23.388Z,98046.47
2022-12-01T18:12:54.269Z,98043.16
2022-12-01T18:15:27.333Z,98037.25
2022-12-01T18:17:59.704Z,98037.19
2022-12-01T18:20:30.453Z,98038.22
2022-12-01T18:22:59.538Z,98041.25
2022-12-01T18:25:36.006Z,98046.63
2022-12-01T18:28:06.192Z,98052.75
2022-12-01T18:30:36.036Z,98045.41
2022-12-01T18:33:06.746Z,98038.41
2022-12-01T18:35:39.583Z,98034.34
2022-12-01T18:38:11.441Z,98037.25
2022-12-01T18:40:42.706Z,98029.34
2022-12-01T18:43:11.798Z,98034.50
2022-12-01T18:45:41.787Z,98034.97
2022-12-01T18:48:11.361Z,98033.31
2022-12-01T18:50:43.018Z,98037.53
2022-12-01T18:53:12.876Z,98035.16
2022-12-01T18:55:44.940Z,98034.97
2022-12-01T18:58:16.737Z,98036.97
2022-12-01T19:00:47.075Z,98038.50
2022-12-01T19:03:17.592Z,98041.16
2022-12-01T19:05:50.271Z,98048.03
2022-12-01T19:08:21.256Z,98046.16
2022-12-01T19:11:02.311Z,98042.03
2022-12-01T19:13:37.118Z,98047.97
2022-12-01T19:16:12.836Z,98045.72
2022-12-01T19:18:42.990Z,98047.97
2022-12-01T19:21:17.315Z,98041.59
2022-12-01T19:23:49.443Z,98048.25
2022-12-01T19:26:22.099Z,98051.66
2022-12-01T19:28:56.827Z,98053.16
2022-12-01T19:31:28.257Z,98049.81
2022-12-01T19:33:59.599Z,98045.34
2022-12-01T19:36:29.746Z,98056.47
2022-12-01T19:39:03.691Z,98049.00
2022-12-01T19:41:36.544Z,98050.56
2022-12-01T19:44:07.368Z,98045.41
2022-12-01T19:46:37.322Z,98046.25
2022-12-01T19:49:08.617Z,98044.66
2022-12-01T19:51:40.800Z,98042.03
2022-12-01T19:54:13.088Z,98048.03
2022-12-01T19:56:46.814Z,98052.31
2022-12-01T19:59:18.969Z,98043.72
2022-12-01T20:01:49.399Z,98043.81
2022-12-01T20:04:19.410Z,98044.66
2022-12-01T20:06:49.469Z,98039.63
2022-12-01T20:09:20.609Z,98045.28
2022-12-01T20:11:52.369Z,98045.66
2022-12-01T20:14:22.132Z,98043.53
2022-12-01T20:16:52.734Z,98033.09
2022-12-01T20:19:22.972Z,98042.16
2022-12-01T20:21:52.717Z,98039.63
2022-12-01T20:24:25.299Z,98043.13
2022-12-01T20:26:59.010Z,98039.06
2022-12-01T20:29:31.154Z,98042.28
2022-12-01T20:32:06.166Z,98043.03
2022-12-01T20:34:37.743Z,98042.25
2022-12-01T20:37:06.977Z,98040.59
2022-12-01T20:39:38.342Z,98041.38
2022-12-01T20:42:11.134Z,98040.88
2022-12-01T20:44:44.396Z,98043.66
2022-12-01T20:47:19.064Z,98044.19
2022-12-01T20:49:53.037Z,98045.03
2022-12-01T20:52:27.208Z,98044.84
2022-12-01T20:54:57.293Z,98043.22
2022-12-01T20:57:29.985Z,98037.16
2022-12-01T20:59:59.265Z,98041.34
2022-12-01T21:02:27.987Z,98037.94
2022-12-01T21:04:59.128Z,98037.94
2022-12-01T21:07:27.732Z,98037.94
2022-12-01T21:09:56.417Z,98040.41
2022-12-01T21:12:46.684Z,98043.13
2022-12-01T21:15:22.210Z,98044.84
2022-12-01T21:17:54.262Z,98037.09
2022-12-01T21:20:33.031Z,98042.25
2022-12-01T21:23:12.766Z,98041.53
2022-12-01T21:25:41.760Z,98036.38
2022-12-01T21:28:22.109Z,98037.19
2022-12-01T21:30:51.941Z,98035.66
2022-12-01T21:33:28.559Z,98035.88
2022-12-01T21:35:57.836Z,98028.66
2022-12-01T21:38:26.466Z,98033.22
2022-12-01T21:40:54.783Z,98035.66
2022-12-01T21:43:25.698Z,98037.09
2022-12-01T21:45:56.372Z,98036.38
2022-12-01T21:48:25.107Z,98035.41
2022-12-01T21:51:01.039Z,98031.06
2022-12-01T21:53:34.845Z,98026.94
2022-12-01T21:56:03.316Z,98030.28
2022-12-01T21:58:36.093Z,98034.63
2022-12-01T22:01:14.237Z,98028.84
2022-12-01T22:03:45.854Z,98022.78
2022-12-01T22:06:31.384Z,98029.59
2022-12-01T22:09:02.510Z,98026.19
2022-12-01T22:11:31.707Z,98032.28
2022-12-01T22:14:11.747Z,98034.91
2022-12-01T22:16:43.081Z,98029.78
2022-12-01T22:19:29.845Z,98034.97
2022-12-01T22:22:03.364Z,98029.88
2022-12-01T22:24:39.209Z,98027.31
2022-12-01T22:27:16.163Z,98029.91
2022-12-01T22:29:47.697Z,98032.56
2022-12-01T22:32:55.086Z,98026.47
2022-12-01T22:35:33.065Z,98026.56
2022-12-01T22:38:14.726Z,98015.56
2022-12-01T22:40:45.944Z,98016.25
2022-12-01T22:43:50.301Z,98018.75
2022-12-01T22:46:41.488Z,98019.50
2022-12-01T22:49:19.482Z,98014.88
2022-12-01T22:51:49.697Z,98016.72
2022-12-01T22:54:28.214Z,98015.13
2022-12-01T22:57:07.174Z,98010.84
2022-12-01T22:59:37.053Z,98019.41
2022-12-01T23:02:20.771Z,98004.19
2022-12-01T23:04:51.154Z,98011.97
2022-12-01T23:07:35.069Z,98005.19
2022-12-01T23:10:08.666Z,97996.03
2022-12-01T23:12:38.099Z,97997.03
2022-12-01T23:15:22.220Z,97983.66
2022-12-01T23:17:52.506Z,97977.75
2022-12-01T23:20:28.412Z,97972.78
2022-12-01T23:22:57.718Z,97976.81
2022-12-01T23:25:27.513Z,97962.44
2022-12-01T23:27:58.943Z,97968.75
2022-12-01T23:30:27.469Z,97967.91
2022-12-01T23:33:07.893Z,97963.66
2022-12-01T23:35:41.335Z,97962.44
2022-12-01T23:38:16.377Z,97957.63
2022-12-01T23:40:45.262Z,97955.78
2022-12-01T23:43:18.402Z,97946.94
2022-12-01T23:45:47.956Z,97949.66
2022-12-01T23:48:20.983Z,97949.66
2022-12-01T23:50:51.637Z,97958.22
2022-12-01T23:53:26.962Z,97948.00
2022-12-01T23:55:56.056Z,97949.03
2022-12-01T23:58:24.488Z,97947.81
